< < Back
Terminal Aerodrome Forecast


Current Version              Previous Versions:   1  2  3  4  5  6  7  8  9  

Terminal Aerodrome Forecast

856
FTUS42 KFFC 041129
TAFCSG
TAF
KCSG 041129Z 0412/0512 33005KT P6SM FEW100
     FM041400 33010G18KT P6SM SKC
     FM042000 30012G20KT P6SM SKC
     FM050000 29006KT P6SM SKC
     FM050900 30008KT P6SM SKC=

Latest METAR

018
SAUS70 KWBC 051400
MTRCSG
METAR KCSG 051351Z 33012KT 10SM CLR 15/05 A2985 RMK AO2 SLP103
T01500050


USA.gov is the U.S. government's official web portal to all federal, state and local government web resources and services.